createdAt,value
2023-01-18T08:12:39.407Z,25.00
2023-01-18T12:35:28.311Z,25.00
2023-01-18T12:36:28.235Z,25.00
2023-01-18T12:37:28.156Z,25.00
2023-01-18T12:38:28.106Z,25.00
2023-01-18T12:39:27.992Z,25.00
2023-01-18T12:40:27.906Z,0.00
2023-01-18T12:41:27.822Z,0.00
2023-01-18T12:42:27.730Z,0.00
2023-01-18T12:43:27.668Z,0.00
2023-01-18T12:44:27.549Z,0.00
2023-01-18T12:45:27.462Z,0.00
2023-01-18T12:46:27.408Z,0.00
2023-01-18T12:47:27.277Z,0.00
2023-01-18T12:48:27.173Z,0.00
2023-01-18T12:49:27.081Z,0.00
2023-01-18T12:50:26.992Z,0.00
2023-01-18T12:51:26.871Z,0.00
2023-01-18T12:52:26.787Z,0.00
2023-01-18T12:53:26.703Z,5.28
2023-01-18T12:54:26.557Z,25.00
2023-01-18T12:55:26.463Z,25.00
2023-01-18T12:56:26.351Z,25.44
2023-01-18T12:57:26.242Z,27.38
2023-01-18T12:58:26.144Z,30.52
2023-01-18T12:59:26.035Z,25.60
2023-01-18T13:00:25.938Z,25.00
2023-01-18T13:01:25.950Z,25.85
2023-01-18T13:02:25.735Z,25.15
2023-01-18T13:03:25.668Z,25.28
2023-01-18T13:04:25.520Z,26.79
2023-01-18T13:05:25.418Z,26.18
2023-01-18T13:06:25.325Z,25.46
2023-01-18T13:07:25.206Z,29.59
2023-01-18T13:08:25.095Z,26.45
2023-01-18T13:09:24.992Z,25.00
2023-01-18T13:10:24.911Z,26.04
2023-01-18T13:11:24.804Z,25.64
2023-01-18T13:12:24.706Z,25.12
2023-01-18T13:13:24.596Z,25.00
2023-01-18T13:14:24.499Z,29.77
2023-01-18T13:15:24.381Z,26.77
2023-01-18T13:16:24.274Z,29.53
2023-01-18T13:17:24.175Z,25.86
2023-01-18T13:18:24.087Z,30.68
2023-01-18T13:19:24.838Z,26.16
2023-01-18T13:20:23.891Z,29.81
2023-01-18T13:21:23.796Z,26.81
2023-01-18T13:22:23.699Z,29.45
2023-01-18T13:23:23.596Z,25.51
2023-01-18T13:24:23.498Z,26.19
2023-01-18T13:25:25.031Z,29.72
2023-01-18T13:26:23.317Z,27.59
2023-01-18T13:27:23.202Z,29.40
2023-01-18T13:28:23.107Z,29.97
2023-01-18T13:29:23.003Z,29.93
2023-01-18T13:30:22.903Z,29.38
2023-01-18T13:31:22.821Z,32.29
2023-01-18T13:32:22.708Z,30.50
2023-01-18T13:33:22.603Z,33.90
2023-01-18T13:34:22.517Z,29.47
2023-01-18T13:35:24.987Z,30.03
2023-01-18T13:36:22.293Z,32.89
2023-01-18T13:37:22.188Z,30.67
2023-01-18T13:38:25.442Z,32.94
2023-01-18T13:40:21.880Z,32.96
2023-01-18T13:41:21.777Z,33.93
2023-01-18T13:42:21.683Z,34.17
2023-01-18T13:50:20.851Z,41.26
2023-01-18T14:10:19.373Z,54.90
2023-01-18T14:11:19.356Z,52.56
2023-01-18T14:12:19.267Z,53.14
2023-01-18T14:13:19.199Z,57.57
2023-01-18T14:14:19.147Z,58.55
2023-01-18T14:16:19.080Z,57.41
2023-01-18T14:17:18.972Z,58.29
2023-01-18T14:19:18.863Z,58.03
2023-01-18T14:20:18.786Z,60.10
2023-01-18T14:21:18.724Z,61.92
2023-01-18T14:22:18.672Z,64.59
2023-01-18T14:23:18.610Z,64.06
2023-01-18T14:24:18.539Z,68.95
2023-01-18T14:25:18.487Z,66.88
2023-01-18T14:26:18.430Z,67.95
2023-01-18T14:27:18.374Z,67.82
2023-01-18T14:28:18.317Z,72.51
2023-01-18T14:29:18.262Z,71.25
2023-01-18T14:30:18.211Z,71.81
2023-01-18T14:31:18.156Z,70.72
2023-01-18T14:32:18.094Z,72.12
2023-01-18T14:33:18.028Z,75.12
2023-01-18T14:34:17.968Z,75.12
2023-01-18T14:35:17.911Z,75.79
2023-01-18T14:36:17.905Z,74.45
2023-01-18T14:37:17.816Z,77.76
2023-01-18T14:38:19.004Z,75.84
2023-01-18T14:39:17.689Z,78.56
2023-01-18T14:40:17.651Z,78.59
2023-01-18T14:41:17.578Z,78.32
2023-01-18T14:42:17.537Z,76.85
2023-01-18T14:43:17.476Z,81.71
2023-01-18T14:44:17.439Z,83.36
2023-01-18T14:45:17.366Z,81.47
2023-01-18T14:46:17.354Z,83.10
2023-01-18T14:47:23.884Z,84.22
2023-01-18T14:48:18.164Z,84.28
2023-01-18T14:49:17.067Z,82.91
2023-01-18T14:50:16.955Z,84.74
2023-01-18T14:51:16.858Z,86.46
2023-01-18T14:52:16.748Z,87.37
2023-01-18T14:53:16.699Z,87.31
2023-01-18T14:54:16.527Z,87.12
2023-01-18T14:55:16.419Z,87.95
2023-01-18T14:56:16.335Z,89.96
2023-01-18T14:57:16.211Z,91.02
2023-01-18T14:58:16.138Z,92.84
2023-01-18T14:59:15.993Z,93.81
2023-01-18T15:00:15.958Z,93.36
2023-01-18T15:01:15.963Z,95.48
2023-01-18T15:02:15.872Z,96.35
2023-01-18T15:03:15.799Z,97.99
2023-01-18T15:04:15.744Z,95.29
2023-01-18T15:05:15.713Z,97.62
2023-01-18T15:06:15.650Z,98.11
2023-01-18T15:07:15.606Z,97.20
2023-01-18T15:08:15.557Z,99.10
2023-01-18T15:09:15.500Z,75.98
2023-01-18T15:39:14.269Z,105.68
2023-01-18T15:40:14.232Z,106.61
2023-01-18T15:41:14.192Z,109.16
2023-01-18T15:42:14.160Z,108.61
2023-01-18T15:43:14.119Z,107.70
2023-01-18T15:44:14.066Z,107.67
2023-01-18T15:45:14.024Z,109.14
2023-01-18T15:46:13.979Z,110.99
2023-01-18T15:47:13.941Z,111.34
2023-01-18T15:48:13.895Z,112.20
2023-01-18T15:49:13.840Z,112.55
2023-01-18T15:50:13.808Z,113.67
2023-01-18T15:51:13.762Z,113.60
2023-01-18T15:52:13.721Z,114.58
2023-01-18T15:53:13.671Z,116.27
2023-01-18T15:54:13.631Z,113.82
2023-01-18T15:55:13.577Z,115.01
2023-01-18T15:56:13.535Z,117.30
2023-01-18T15:57:13.501Z,114.29
2023-01-18T15:58:13.459Z,113.78
2023-01-18T15:59:13.408Z,114.18
2023-01-18T16:00:13.373Z,117.58
2023-01-18T16:01:13.435Z,119.62
2023-01-18T16:02:13.398Z,120.51
2023-01-18T16:03:13.248Z,121.61
2023-01-18T16:04:13.202Z,120.61
2023-01-18T16:05:13.181Z,119.25
2023-01-18T16:06:13.119Z,122.41
2023-01-18T16:07:13.075Z,123.75
2023-01-18T16:08:16.020Z,123.79
2023-01-18T16:09:13.372Z,123.32
2023-01-18T16:10:12.828Z,123.34
2023-01-18T16:11:12.722Z,125.13
2023-01-18T16:12:12.615Z,127.83
2023-01-18T16:13:12.511Z,125.68
2023-01-18T16:14:12.400Z,127.40
2023-01-18T16:15:12.300Z,127.29
2023-01-18T16:16:12.208Z,125.65
2023-01-18T16:17:12.090Z,129.18
2023-01-18T16:18:12.001Z,129.66
2023-01-18T16:19:11.892Z,131.98
2023-01-18T16:20:11.788Z,134.04
2023-01-18T16:21:11.691Z,134.08
2023-01-18T16:22:11.591Z,132.46
2023-01-18T16:23:11.479Z,131.74
2023-01-18T16:24:11.383Z,132.68
2023-01-18T16:25:11.280Z,131.98
2023-01-18T16:26:11.224Z,136.41
2023-01-18T16:27:11.395Z,138.26
2023-01-18T16:28:10.986Z,139.78
2023-01-18T16:29:10.880Z,134.91
2023-01-18T16:30:10.793Z,137.41
2023-01-18T16:31:10.794Z,135.62
2023-01-18T16:32:10.564Z,138.23
2023-01-18T16:33:10.476Z,138.36
2023-01-18T16:34:10.364Z,138.80
2023-01-18T16:35:11.027Z,137.39
2023-01-18T16:36:10.149Z,140.26
2023-01-18T16:37:10.060Z,141.79
2023-01-18T16:38:09.957Z,140.58
2023-01-18T16:39:09.845Z,140.62
2023-01-18T16:40:09.752Z,142.09
2023-01-18T16:41:09.701Z,144.56
2023-01-18T16:42:09.661Z,140.38
2023-01-18T16:43:09.622Z,142.46
2023-01-18T16:44:09.615Z,141.79
2023-01-18T16:45:09.556Z,141.88
2023-01-18T16:46:09.644Z,142.26
2023-01-18T16:47:09.478Z,142.21
2023-01-18T16:48:09.440Z,139.19
2023-01-18T16:49:09.403Z,146.20
2023-01-18T16:50:09.358Z,145.47
2023-01-18T16:51:09.315Z,146.88
2023-01-18T16:52:09.282Z,145.72
2023-01-18T16:53:09.265Z,146.95
2023-01-18T16:54:09.209Z,145.16
2023-01-18T16:55:09.187Z,147.25
2023-01-18T16:56:09.144Z,146.85
2023-01-18T16:57:09.111Z,147.65
2023-01-18T16:58:09.077Z,147.77
2023-01-18T16:59:09.048Z,149.36
2023-01-18T17:00:09.021Z,148.83
2023-01-18T17:01:09.051Z,148.60
2023-01-18T17:02:09.073Z,148.83
2023-01-18T17:03:08.975Z,148.96
2023-01-18T17:04:08.881Z,152.56
2023-01-18T17:05:08.854Z,150.37
2023-01-18T17:07:08.784Z,149.14
2023-01-18T17:08:08.751Z,153.97
2023-01-18T17:09:08.704Z,151.45
2023-01-18T17:10:08.685Z,155.17
2023-01-18T17:11:08.641Z,152.15
2023-01-18T17:12:08.597Z,153.45
2023-01-18T17:13:08.569Z,155.16
2023-01-18T17:14:08.527Z,155.45
2023-01-18T17:15:08.493Z,156.81
2023-01-18T17:18:08.395Z,154.63
2023-01-18T17:19:08.333Z,158.11
2023-01-18T17:20:08.303Z,157.65
2023-01-18T17:21:08.245Z,157.09
2023-01-18T17:22:08.212Z,155.78
2023-01-18T17:23:08.177Z,157.39
2023-01-18T17:24:08.134Z,158.74
2023-01-18T17:25:08.108Z,157.90
2023-01-18T17:26:08.069Z,160.89
2023-01-18T17:27:08.024Z,157.89
2023-01-18T17:28:07.984Z,161.48
2023-01-18T17:29:07.956Z,162.34
2023-01-18T17:30:07.930Z,160.43
2023-01-18T17:31:07.904Z,160.52
2023-01-18T17:32:07.848Z,159.72
2023-01-18T17:33:07.807Z,161.66
2023-01-18T17:34:07.775Z,164.02
2023-01-18T17:35:07.757Z,162.75
2023-01-18T17:36:07.710Z,162.65
2023-01-18T17:37:07.680Z,163.40
2023-01-18T17:38:22.158Z,165.11
2023-01-18T17:40:16.985Z,164.64
2023-01-18T17:41:11.392Z,165.28
2023-01-18T17:42:08.361Z,165.33
2023-01-18T17:43:07.132Z,165.33
2023-01-18T17:44:07.048Z,165.45
2023-01-18T17:45:06.943Z,165.87
2023-01-18T17:46:06.957Z,165.01
2023-01-18T17:47:06.758Z,165.90
2023-01-18T17:48:06.641Z,167.28
2023-01-18T17:49:06.541Z,167.84
2023-01-18T17:50:06.430Z,165.73
2023-01-18T17:51:06.326Z,164.67
2023-01-18T17:52:06.252Z,165.32
2023-01-18T17:53:06.143Z,167.24
2023-01-18T17:54:13.169Z,167.86
2023-01-18T17:55:06.967Z,168.03
2023-01-18T17:56:05.865Z,168.17
2023-01-18T17:57:05.755Z,168.14
2023-01-18T17:58:05.658Z,166.99
2023-01-18T17:59:05.546Z,168.42
2023-01-18T21:22:58.294Z,212.72
2023-01-18T21:23:58.256Z,211.53
2023-01-18T21:24:58.212Z,210.83
2023-01-18T21:25:58.204Z,213.28
2023-01-18T21:26:58.184Z,212.50
2023-01-18T21:27:58.553Z,212.77
2023-01-18T21:39:57.796Z,214.50
2023-01-18T21:40:57.748Z,215.41
2023-01-18T21:41:57.715Z,214.70
2023-01-18T21:42:57.693Z,214.29
2023-01-18T21:43:57.659Z,212.79
2023-01-18T21:44:57.608Z,214.49
2023-01-18T21:45:57.608Z,213.60
2023-01-18T21:46:57.588Z,216.73
2023-01-18T21:47:58.022Z,215.04
2023-01-18T21:48:57.461Z,215.09
2023-01-18T21:50:16.613Z,213.86
2023-01-18T21:51:57.226Z,214.22
2023-01-18T21:52:57.153Z,214.90
2023-01-18T21:53:57.061Z,214.87
2023-01-18T21:54:56.949Z,215.56
2023-01-18T21:55:56.851Z,215.92
2023-01-18T21:56:56.770Z,217.11
2023-01-18T21:57:56.667Z,215.91
2023-01-18T21:58:56.571Z,216.43
2023-01-18T21:59:56.465Z,216.69
2023-01-18T22:00:56.435Z,216.16
2023-01-18T22:01:56.502Z,218.79
2023-01-18T22:02:56.283Z,214.63
2023-01-18T22:05:55.992Z,217.23
2023-01-18T22:08:55.813Z,214.70
2023-01-18T22:10:55.719Z,216.55
2023-01-18T22:11:55.651Z,219.19
2023-01-18T22:12:55.581Z,216.59
2023-01-18T22:13:55.522Z,218.28
